createdAt,value
2022-11-30T00:00:16.062Z,19.07
2022-11-30T00:03:18.611Z,19.17
2022-11-30T00:06:24.344Z,18.40
2022-11-30T00:09:26.859Z,18.48
2022-11-30T00:12:30.754Z,19.02
2022-11-30T00:15:33.475Z,17.10
2022-11-30T00:18:36.356Z,17.63
2022-11-30T00:21:38.886Z,17.73
2022-11-30T00:24:41.349Z,17.98
2022-11-30T00:27:45.055Z,17.13
2022-11-30T00:30:57.094Z,16.53
2022-11-30T00:33:59.659Z,16.40
2022-11-30T00:37:02.103Z,17.33
2022-11-30T00:40:06.127Z,17.42
2022-11-30T00:43:09.895Z,17.08
2022-11-30T00:46:12.461Z,16.83
2022-11-30T00:49:14.935Z,16.90
2022-11-30T00:52:17.310Z,15.52
2022-11-30T00:55:19.808Z,16.00
2022-11-30T00:58:23.548Z,16.00
2022-11-30T01:01:27.095Z,16.17
2022-11-30T01:04:29.595Z,14.85
2022-11-30T01:07:32.095Z,15.90
2022-11-30T01:10:35.207Z,13.90
2022-11-30T01:13:39.376Z,15.57
2022-11-30T01:16:43.001Z,16.03
2022-11-30T01:19:46.526Z,15.43
2022-11-30T01:22:48.979Z,14.40
2022-11-30T01:25:55.158Z,14.48
2022-11-30T01:28:59.265Z,14.30
2022-11-30T01:32:01.644Z,13.63
2022-11-30T01:35:04.325Z,13.93
2022-11-30T01:38:06.752Z,14.35
2022-11-30T01:41:12.276Z,13.48
2022-11-30T01:44:51.933Z,14.18
2022-11-30T01:47:57.034Z,13.67
2022-11-30T01:50:59.532Z,14.40
2022-11-30T01:54:04.503Z,13.70
2022-11-30T01:57:11.602Z,13.25
2022-11-30T02:00:16.500Z,13.45
2022-11-30T02:03:26.446Z,13.20
2022-11-30T02:06:29.323Z,12.85
2022-11-30T02:09:38.099Z,12.88
2022-11-30T02:13:06.161Z,13.68
2022-11-30T02:16:20.957Z,12.82
2022-11-30T02:19:54.635Z,13.77
2022-11-30T02:23:20.811Z,13.18
2022-11-30T02:26:36.786Z,13.52
2022-11-30T02:29:43.961Z,12.85
2022-11-30T02:32:51.916Z,11.98
2022-11-30T02:35:55.797Z,12.23
2022-11-30T02:38:58.606Z,13.13
2022-11-30T02:42:01.051Z,11.90
2022-11-30T02:45:07.931Z,11.60
2022-11-30T02:48:12.976Z,12.23
2022-11-30T02:51:20.050Z,11.77
2022-11-30T02:54:23.628Z,11.93
2022-11-30T02:57:27.063Z,11.75
2022-11-30T03:00:30.982Z,12.55
2022-11-30T03:03:33.467Z,12.02
2022-11-30T03:06:35.917Z,11.90
2022-11-30T03:09:38.396Z,12.43
2022-11-30T03:12:40.918Z,12.45
2022-11-30T03:15:44.810Z,13.07
2022-11-30T03:18:47.362Z,12.40
2022-11-30T03:21:49.778Z,13.10
2022-11-30T03:24:52.148Z,12.07
2022-11-30T03:27:54.647Z,13.10
2022-11-30T03:30:58.472Z,12.70
2022-11-30T03:34:01.167Z,12.57
2022-11-30T03:37:03.762Z,12.40
2022-11-30T03:40:07.856Z,13.40
2022-11-30T03:43:10.243Z,12.95
2022-11-30T03:46:14.309Z,13.27
2022-11-30T03:49:18.732Z,12.93
2022-11-30T03:52:22.310Z,12.57
2022-11-30T03:55:24.676Z,13.45
2022-11-30T03:58:27.341Z,13.23
2022-11-30T04:01:31.206Z,14.13
2022-11-30T04:04:33.642Z,13.50
2022-11-30T04:07:36.082Z,13.83
2022-11-30T04:10:38.918Z,13.73
2022-11-30T04:13:42.674Z,13.32
2022-11-30T04:16:46.438Z,13.38
2022-11-30T04:19:49.130Z,14.38
2022-11-30T04:22:51.557Z,17.77
2022-11-30T04:25:53.980Z,27.95
2022-11-30T04:28:57.173Z,22.02
2022-11-30T04:32:00.990Z,20.38
2022-11-30T04:35:03.510Z,20.10
2022-11-30T04:38:05.919Z,16.20
2022-11-30T04:41:09.174Z,14.60
2022-11-30T04:44:11.719Z,14.80
2022-11-30T04:47:17.279Z,14.85
2022-11-30T04:50:19.914Z,15.00
2022-11-30T04:53:22.581Z,15.33
2022-11-30T04:56:25.048Z,15.52
2022-11-30T04:59:27.567Z,14.95
2022-11-30T05:02:31.474Z,14.02
2022-11-30T05:05:34.098Z,15.07
2022-11-30T05:08:36.574Z,15.30
2022-11-30T05:11:39.130Z,13.70
2022-11-30T05:14:43.478Z,15.82
2022-11-30T05:17:47.921Z,13.68
2022-11-30T05:20:51.953Z,13.73
2022-11-30T05:23:54.355Z,13.00
2022-11-30T05:26:56.744Z,14.18
2022-11-30T05:29:59.202Z,14.00
2022-11-30T05:33:03.356Z,16.50
2022-11-30T05:36:10.662Z,17.40
2022-11-30T05:39:17.010Z,20.23
2022-11-30T05:42:19.893Z,18.52
2022-11-30T05:45:22.414Z,14.70
2022-11-30T05:48:27.879Z,14.27
2022-11-30T05:51:30.386Z,12.68
2022-11-30T05:54:33.935Z,13.73
2022-11-30T05:57:37.188Z,13.77
2022-11-30T06:00:39.656Z,12.68
2022-11-30T06:03:43.739Z,19.60
2022-11-30T06:06:46.584Z,14.82
2022-11-30T06:09:49.764Z,19.30
2022-11-30T06:12:52.297Z,16.98
2022-11-30T06:15:54.888Z,16.23
2022-11-30T06:18:58.780Z,14.15
2022-11-30T06:22:02.353Z,14.32
2022-11-30T06:25:05.686Z,13.30
2022-11-30T06:28:09.267Z,14.50
2022-11-30T06:31:11.879Z,13.32
2022-11-30T06:34:15.684Z,14.75
2022-11-30T06:37:18.404Z,15.93
2022-11-30T06:40:21.098Z,14.17
2022-11-30T06:43:37.529Z,14.52
2022-11-30T06:46:39.991Z,12.48
2022-11-30T06:49:45.816Z,13.27
2022-11-30T06:52:49.475Z,12.20
2022-11-30T06:55:52.299Z,12.33
2022-11-30T06:58:55.660Z,12.02
2022-11-30T07:02:00.637Z,12.20
2022-11-30T07:05:08.633Z,11.85
2022-11-30T07:08:11.688Z,13.95
2022-11-30T07:11:14.278Z,17.03
2022-11-30T07:14:16.837Z,15.70
2022-11-30T07:17:20.262Z,14.40
2022-11-30T07:20:24.052Z,13.45
2022-11-30T07:23:44.913Z,12.40
2022-11-30T07:26:48.008Z,11.80
2022-11-30T07:29:52.421Z,12.15
2022-11-30T07:32:54.884Z,13.00
2022-11-30T07:35:58.754Z,12.20
2022-11-30T07:39:01.932Z,11.73
2022-11-30T07:42:04.581Z,11.60
2022-11-30T07:45:08.932Z,12.20
2022-11-30T07:48:11.470Z,13.23
2022-11-30T07:51:18.108Z,12.43
2022-11-30T07:54:20.552Z,12.38
2022-11-30T07:57:22.962Z,12.60
2022-11-30T08:00:25.704Z,15.35
2022-11-30T08:03:31.214Z,17.40
2022-11-30T08:06:39.447Z,15.55
2022-11-30T08:09:42.177Z,17.05
2022-11-30T08:12:44.761Z,12.80
2022-11-30T08:15:47.226Z,12.88
2022-11-30T08:18:49.784Z,13.70
2022-11-30T08:21:56.874Z,12.95
2022-11-30T08:24:59.334Z,17.00
2022-11-30T08:28:02.051Z,13.43
2022-11-30T08:31:07.426Z,12.57
2022-11-30T08:34:11.708Z,12.27
2022-11-30T08:37:15.544Z,12.38
2022-11-30T08:40:18.132Z,14.02
2022-11-30T08:43:20.585Z,12.67
2022-11-30T08:49:46.990Z,12.13
2022-11-30T08:52:50.785Z,13.30
2022-11-30T08:55:57.301Z,12.80
2022-11-30T08:59:00.040Z,12.60
2022-11-30T09:02:02.841Z,12.48
2022-11-30T09:05:06.297Z,12.05
2022-11-30T09:08:10.155Z,12.75
2022-11-30T09:11:14.457Z,12.93
2022-11-30T09:14:16.972Z,12.57
2022-11-30T09:17:19.428Z,14.27
2022-11-30T09:20:21.933Z,12.68
2022-11-30T09:23:25.834Z,12.40
2022-11-30T09:26:28.503Z,12.32
2022-11-30T09:29:30.972Z,12.53
2022-11-30T09:32:33.561Z,13.13
2022-11-30T09:35:36.024Z,13.25
2022-11-30T09:38:40.099Z,13.90
2022-11-30T09:42:05.302Z,12.50
2022-11-30T09:45:13.964Z,13.17
2022-11-30T09:48:32.524Z,14.73
2022-11-30T09:51:42.568Z,13.75
2022-11-30T09:54:49.751Z,12.30
2022-11-30T09:57:55.349Z,12.60
2022-11-30T10:00:58.065Z,13.17
2022-11-30T10:04:04.416Z,11.93
2022-11-30T10:07:16.732Z,13.38
2022-11-30T10:10:36.674Z,13.38
2022-11-30T10:13:50.973Z,12.65
2022-11-30T10:17:04.799Z,12.33
2022-11-30T10:20:35.747Z,13.63
2022-11-30T10:24:05.380Z,13.63
2022-11-30T10:27:17.415Z,13.48
2022-11-30T10:30:23.670Z,20.75
2022-11-30T10:33:38.646Z,13.37
2022-11-30T10:36:46.627Z,14.07
2022-11-30T10:40:02.221Z,13.02
2022-11-30T10:43:17.779Z,12.93
2022-11-30T10:46:45.938Z,13.30
2022-11-30T10:49:52.690Z,13.63
2022-11-30T10:52:59.979Z,13.82
2022-11-30T10:56:07.602Z,13.23
2022-11-30T10:59:17.484Z,12.38
2022-11-30T11:02:42.203Z,13.95
2022-11-30T11:05:46.417Z,13.80
2022-11-30T11:08:50.086Z,13.55
2022-11-30T11:11:55.545Z,12.90
2022-11-30T11:15:16.515Z,13.38
2022-11-30T11:18:25.723Z,14.32
2022-11-30T11:21:28.684Z,14.37
2022-11-30T11:24:31.563Z,13.50
2022-11-30T11:27:34.189Z,13.43
2022-11-30T11:30:38.486Z,14.20
2022-11-30T11:33:51.474Z,13.68
2022-11-30T11:37:05.146Z,15.87
2022-11-30T11:40:15.934Z,25.50
2022-11-30T11:43:18.853Z,17.48
2022-11-30T11:46:23.227Z,12.48
2022-11-30T11:49:27.667Z,12.80
2022-11-30T11:52:30.153Z,15.20
2022-11-30T11:55:34.565Z,13.63
2022-11-30T11:58:44.090Z,12.40
2022-11-30T12:02:20.772Z,13.93
2022-11-30T12:05:29.782Z,12.98
2022-11-30T12:08:38.433Z,14.00
2022-11-30T12:11:44.212Z,13.10
2022-11-30T12:14:46.753Z,12.52
2022-11-30T12:18:01.518Z,13.32
2022-11-30T12:21:13.322Z,12.48
2022-11-30T12:24:34.454Z,13.03
2022-11-30T12:27:49.180Z,12.85
2022-11-30T12:31:10.716Z,14.00
2022-11-30T12:34:21.033Z,12.20
2022-11-30T12:37:36.141Z,13.75
2022-11-30T12:40:53.339Z,12.33
2022-11-30T12:44:05.420Z,13.05
2022-11-30T12:47:20.327Z,12.10
2022-11-30T12:50:36.503Z,12.48
2022-11-30T12:53:46.004Z,15.65
2022-11-30T12:56:55.179Z,14.23
2022-11-30T13:00:06.214Z,12.27
2022-11-30T13:03:39.295Z,12.20
2022-11-30T13:06:47.468Z,14.73
2022-11-30T13:09:56.620Z,14.23
2022-11-30T13:13:01.149Z,15.40
2022-11-30T13:16:08.202Z,15.18
2022-11-30T13:19:27.036Z,17.58
2022-11-30T13:22:45.866Z,18.10
2022-11-30T13:26:11.205Z,15.63
2022-11-30T13:29:46.138Z,15.97
2022-11-30T13:32:57.761Z,14.52
2022-11-30T13:36:04.617Z,16.67
2022-11-30T13:39:23.310Z,20.15
2022-11-30T13:42:35.257Z,14.85
2022-11-30T13:45:38.628Z,14.67
2022-11-30T13:48:43.420Z,16.83
2022-11-30T13:52:01.366Z,15.68
2022-11-30T13:55:42.995Z,17.45
2022-11-30T13:59:18.970Z,18.10
2022-11-30T14:02:59.099Z,14.87
2022-11-30T14:06:28.823Z,15.50
2022-11-30T14:10:08.549Z,13.98
2022-11-30T14:13:29.128Z,17.30
2022-11-30T14:16:31.856Z,14.02
2022-11-30T14:19:36.536Z,13.80
2022-11-30T14:22:43.520Z,14.85
2022-11-30T14:25:48.493Z,13.95
2022-11-30T14:28:57.535Z,14.60
2022-11-30T14:32:06.286Z,15.13
2022-11-30T14:35:15.964Z,14.37
2022-11-30T14:38:25.731Z,14.40
2022-11-30T14:41:30.688Z,13.38
2022-11-30T14:44:39.993Z,17.25
2022-11-30T14:47:47.955Z,17.25
2022-11-30T14:50:52.848Z,14.40
2022-11-30T14:54:05.082Z,18.02
2022-11-30T14:57:19.363Z,15.10
2022-11-30T15:00:23.248Z,14.93
2022-11-30T15:03:28.344Z,18.38
2022-11-30T15:06:32.374Z,19.53
2022-11-30T15:09:37.226Z,18.80
2022-11-30T15:12:41.788Z,21.17
2022-11-30T15:15:51.710Z,17.65
2022-11-30T15:18:55.905Z,18.42
2022-11-30T15:21:59.339Z,23.67
2022-11-30T15:25:03.316Z,26.13
2022-11-30T15:28:07.277Z,26.48
2022-11-30T15:31:14.893Z,20.08
2022-11-30T15:34:20.541Z,18.63
2022-11-30T15:37:29.179Z,17.70
2022-11-30T15:40:35.637Z,17.58
2022-11-30T15:43:39.891Z,17.25
2022-11-30T15:46:57.350Z,18.08
2022-11-30T15:49:59.894Z,18.63
2022-11-30T15:53:04.484Z,16.83
2022-11-30T15:56:21.802Z,17.80
2022-11-30T15:59:25.792Z,17.63
2022-11-30T16:02:32.504Z,18.58
2022-11-30T16:05:35.390Z,17.30
2022-11-30T16:08:46.106Z,17.37
2022-11-30T16:11:53.890Z,18.02
2022-11-30T16:14:56.604Z,19.08
2022-11-30T16:18:09.693Z,18.80
2022-11-30T16:21:16.358Z,18.10
2022-11-30T16:24:18.996Z,20.03
2022-11-30T16:27:22.827Z,21.50
2022-11-30T16:30:25.307Z,26.67
2022-11-30T16:33:30.507Z,39.80
2022-11-30T16:36:36.911Z,37.92
2022-11-30T16:39:39.352Z,34.87
2022-11-30T16:42:43.623Z,32.78
2022-11-30T16:45:46.850Z,36.00
2022-11-30T16:48:49.938Z,42.03
2022-11-30T16:51:52.535Z,47.85
2022-11-30T16:54:55.209Z,57.43
2022-11-30T16:57:59.258Z,60.50
2022-11-30T17:01:02.057Z,58.63
2022-11-30T17:04:11.432Z,56.47
2022-11-30T17:07:15.110Z,53.92
2022-11-30T17:10:18.087Z,54.57
2022-11-30T17:13:24.773Z,46.38
2022-11-30T17:16:27.561Z,44.75
2022-11-30T17:19:30.383Z,46.33
2022-11-30T17:22:33.857Z,40.10
2022-11-30T17:25:36.644Z,38.03
2022-11-30T17:28:42.269Z,42.13
2022-11-30T17:31:44.767Z,42.67
2022-11-30T17:34:47.576Z,37.70
2022-11-30T17:37:53.380Z,34.22
2022-11-30T17:40:55.835Z,37.83
2022-11-30T17:44:01.151Z,38.10
2022-11-30T17:47:03.877Z,38.53
2022-11-30T17:50:14.802Z,38.38
2022-11-30T17:53:18.383Z,43.05
2022-11-30T17:56:20.944Z,38.80
2022-11-30T17:59:25.391Z,37.70
2022-11-30T18:02:28.233Z,36.58
2022-11-30T18:05:32.513Z,38.90
2022-11-30T18:08:35.509Z,34.63
2022-11-30T18:11:39.384Z,26.67
2022-11-30T18:14:43.422Z,28.08
2022-11-30T18:17:46.051Z,26.48
2022-11-30T18:20:48.733Z,24.70
2022-11-30T18:23:53.529Z,17.92
2022-11-30T18:26:56.224Z,16.33
2022-11-30T18:30:00.313Z,16.38
2022-11-30T18:33:02.955Z,18.27
2022-11-30T18:36:07.697Z,19.48
2022-11-30T18:39:10.935Z,16.38
2022-11-30T18:42:13.648Z,18.63
2022-11-30T18:45:17.889Z,18.27
2022-11-30T18:48:21.628Z,19.48
2022-11-30T18:51:26.049Z,18.58
2022-11-30T18:54:29.510Z,18.58
2022-11-30T18:57:32.191Z,15.50
2022-11-30T19:00:36.240Z,13.85
2022-11-30T19:03:39.308Z,15.20
2022-11-30T19:06:42.553Z,15.95
2022-11-30T19:09:46.052Z,18.67
2022-11-30T19:12:48.913Z,13.73
2022-11-30T19:15:52.972Z,13.10
2022-11-30T19:18:59.270Z,14.50
2022-11-30T19:22:02.131Z,13.63
2022-11-30T19:25:05.781Z,13.00
2022-11-30T19:28:09.539Z,11.87
2022-11-30T19:31:16.236Z,11.60
2022-11-30T19:34:19.957Z,12.38
2022-11-30T19:37:22.681Z,13.02
2022-11-30T19:40:26.411Z,11.27
2022-11-30T19:43:29.132Z,10.83
2022-11-30T19:46:34.603Z,12.40
2022-11-30T19:49:37.423Z,15.82
2022-11-30T19:52:40.051Z,13.60
2022-11-30T19:55:44.309Z,12.35
2022-11-30T19:58:47.455Z,13.07
2022-11-30T20:01:51.552Z,11.55
2022-11-30T20:04:54.313Z,10.90
2022-11-30T20:07:57.024Z,9.93
2022-11-30T20:10:59.734Z,10.65
2022-11-30T20:14:02.833Z,10.70
2022-11-30T20:17:08.118Z,12.15
2022-11-30T20:20:13.173Z,10.98
2022-11-30T20:23:15.879Z,13.10
2022-11-30T20:26:20.944Z,14.43
2022-11-30T20:29:26.744Z,13.97
2022-11-30T20:32:30.846Z,17.85
2022-11-30T20:35:35.123Z,18.02
2022-11-30T20:38:38.325Z,24.27
2022-11-30T20:41:42.324Z,21.70
2022-11-30T20:44:45.072Z,17.17
2022-11-30T20:47:49.178Z,16.55
2022-11-30T20:51:22.358Z,17.13
2022-11-30T20:54:17.509Z,15.20
2022-11-30T20:57:20.168Z,13.93
2022-11-30T21:00:23.417Z,13.13
2022-11-30T21:03:27.757Z,12.38
2022-11-30T21:06:30.949Z,12.75
2022-11-30T21:09:33.438Z,13.38
2022-11-30T21:12:36.135Z,15.07
2022-11-30T21:15:38.698Z,17.40
2022-11-30T21:18:44.466Z,16.77
2022-11-30T21:21:46.958Z,17.15
2022-11-30T21:24:49.591Z,17.17
2022-11-30T21:27:53.474Z,19.80
2022-11-30T21:30:56.169Z,20.30
2022-11-30T21:34:00.513Z,22.65
2022-11-30T21:37:02.988Z,22.27
2022-11-30T21:40:06.853Z,22.00
2022-11-30T21:43:09.249Z,25.48
2022-11-30T21:46:13.683Z,25.87
2022-11-30T21:49:17.573Z,25.30
2022-11-30T21:52:21.067Z,27.52
2022-11-30T21:55:23.546Z,25.17
2022-11-30T21:58:25.932Z,25.13
2022-11-30T22:01:30.878Z,24.50
2022-11-30T22:04:38.208Z,21.30
2022-11-30T22:07:40.765Z,19.50
2022-11-30T22:10:43.226Z,18.33
2022-11-30T22:13:49.145Z,16.15
2022-11-30T22:16:52.003Z,15.53
2022-11-30T22:19:56.019Z,17.95
2022-11-30T22:22:58.492Z,17.65
2022-11-30T22:26:09.204Z,19.92
2022-11-30T22:29:13.480Z,16.42
2022-11-30T22:32:15.936Z,14.13
2022-11-30T22:35:19.712Z,14.30
2022-11-30T22:38:22.197Z,13.43
2022-11-30T22:41:25.226Z,13.70
2022-11-30T22:44:27.964Z,13.15
2022-11-30T22:47:30.503Z,13.10
2022-11-30T22:50:35.563Z,14.40
2022-11-30T22:53:39.279Z,13.65
2022-11-30T22:56:43.022Z,13.60
2022-11-30T22:59:46.153Z,13.60
2022-11-30T23:02:49.060Z,14.00
2022-11-30T23:05:53.053Z,13.73
2022-11-30T23:08:55.666Z,14.68
2022-11-30T23:11:58.454Z,14.60
2022-11-30T23:15:00.858Z,14.95
2022-11-30T23:18:03.460Z,15.87
2022-11-30T23:21:09.542Z,16.77
2022-11-30T23:24:17.697Z,17.83
2022-11-30T23:27:20.194Z,19.10
2022-11-30T23:30:22.877Z,17.98
2022-11-30T23:33:25.690Z,16.03
2022-11-30T23:36:29.467Z,16.02
2022-11-30T23:39:31.867Z,20.05
2022-11-30T23:42:34.384Z,23.77
2022-11-30T23:45:36.816Z,28.85
2022-11-30T23:48:40.336Z,25.03
2022-11-30T23:51:44.344Z,22.63
2022-11-30T23:54:46.956Z,22.60
2022-11-30T23:57:49.393Z,22.08
